sensor_id;sensor_type;location;lat;lon;timestamp;P1;durP1;ratioP1;P2;durP2;ratioP2
10096;SDS011;5087;42.662;23.466;2023-01-08T00:01:58;0.20;;;0.20;;
10096;SDS011;5087;42.662;23.466;2023-01-08T00:04:26;0.00;;;0.00;;
10096;SDS011;5087;42.662;23.466;2023-01-08T00:06:54;0.00;;;0.00;;
10096;SDS011;5087;42.662;23.466;2023-01-08T00:09:23;0.43;;;0.43;;
10096;SDS011;5087;42.662;23.466;2023-01-08T00:11:50;0.00;;;0.00;;
10096;SDS011;5087;42.662;23.466;2023-01-08T00:14:17;0.47;;;0.47;;
10096;SDS011;5087;42.662;23.466;2023-01-08T00:16:44;0.60;;;0.60;;
10096;SDS011;5087;42.662;23.466;2023-01-08T00:19:11;0.00;;;0.00;;
10096;SDS011;5087;42.662;23.466;2023-01-08T00:21:39;1.30;;;1.20;;
10096;SDS011;5087;42.662;23.466;2023-01-08T00:24:07;0.97;;;0.97;;
10096;SDS011;5087;42.662;23.466;2023-01-08T00:26:37;0.00;;;0.00;;
10096;SDS011;5087;42.662;23.466;2023-01-08T00:29:07;0.10;;;0.10;;
10096;SDS011;5087;42.662;23.466;2023-01-08T00:31:34;0.00;;;0.00;;
10096;SDS011;5087;42.662;23.466;2023-01-08T00:34:03;0.00;;;0.00;;
10096;SDS011;5087;42.662;23.466;2023-01-08T00:36:30;0.00;;;0.00;;
10096;SDS011;5087;42.662;23.466;2023-01-08T00:38:58;0.00;;;0.00;;
10096;SDS011;5087;42.662;23.466;2023-01-08T00:41:30;0.10;;;0.10;;
10096;SDS011;5087;42.662;23.466;2023-01-08T00:44:00;0.00;;;0.00;;
10096;SDS011;5087;42.662;23.466;2023-01-08T00:46:28;0.53;;;0.53;;
10096;SDS011;5087;42.662;23.466;2023-01-08T00:48:58;1.10;;;0.87;;
10096;SDS011;5087;42.662;23.466;2023-01-08T00:51:25;0.03;;;0.03;;
10096;SDS011;5087;42.662;23.466;2023-01-08T00:53:53;0.83;;;0.83;;
10096;SDS011;5087;42.662;23.466;2023-01-08T00:56:22;0.00;;;0.00;;
10096;SDS011;5087;42.662;23.466;2023-01-08T00:58:49;0.00;;;0.00;;
10096;SDS011;5087;42.662;23.466;2023-01-08T01:01:17;0.10;;;0.10;;
10096;SDS011;5087;42.662;23.466;2023-01-08T01:03:45;0.00;;;0.00;;
10096;SDS011;5087;42.662;23.466;2023-01-08T01:06:12;0.00;;;0.00;;
10096;SDS011;5087;42.662;23.466;2023-01-08T01:08:40;0.00;;;0.00;;
10096;SDS011;5087;42.662;23.466;2023-01-08T01:11:10;0.00;;;0.00;;
10096;SDS011;5087;42.662;23.466;2023-01-08T01:13:45;0.93;;;0.93;;
10096;SDS011;5087;42.662;23.466;2023-01-08T01:16:13;0.00;;;0.00;;
10096;SDS011;5087;42.662;23.466;2023-01-08T01:18:42;0.00;;;0.00;;
10096;SDS011;5087;42.662;23.466;2023-01-08T01:21:11;0.00;;;0.00;;
10096;SDS011;5087;42.662;23.466;2023-01-08T01:23:39;0.00;;;0.00;;
10096;SDS011;5087;42.662;23.466;2023-01-08T01:26:13;0.77;;;0.77;;
10096;SDS011;5087;42.662;23.466;2023-01-08T01:28:42;0.10;;;0.10;;
10096;SDS011;5087;42.662;23.466;2023-01-08T01:31:09;0.00;;;0.00;;
10096;SDS011;5087;42.662;23.466;2023-01-08T01:33:44;0.10;;;0.10;;
10096;SDS011;5087;42.662;23.466;2023-01-08T01:36:13;2.60;;;2.40;;
10096;SDS011;5087;42.662;23.466;2023-01-08T01:38:42;0.43;;;0.43;;
10096;SDS011;5087;42.662;23.466;2023-01-08T01:41:17;0.10;;;0.10;;
10096;SDS011;5087;42.662;23.466;2023-01-08T01:43:50;0.10;;;0.10;;
10096;SDS011;5087;42.662;23.466;2023-01-08T01:46:23;0.10;;;0.10;;
10096;SDS011;5087;42.662;23.466;2023-01-08T01:49:08;0.13;;;0.13;;
10096;SDS011;5087;42.662;23.466;2023-01-08T01:51:38;0.43;;;0.33;;
10096;SDS011;5087;42.662;23.466;2023-01-08T01:54:10;0.30;;;0.30;;
10096;SDS011;5087;42.662;23.466;2023-01-08T01:56:39;0.20;;;0.20;;
10096;SDS011;5087;42.662;23.466;2023-01-08T01:59:08;0.30;;;0.30;;
10096;SDS011;5087;42.662;23.466;2023-01-08T02:01:36;0.67;;;0.67;;
10096;SDS011;5087;42.662;23.466;2023-01-08T02:04:13;0.10;;;0.10;;
10096;SDS011;5087;42.662;23.466;2023-01-08T02:06:41;0.10;;;0.10;;
10096;SDS011;5087;42.662;23.466;2023-01-08T02:09:16;0.10;;;0.10;;
10096;SDS011;5087;42.662;23.466;2023-01-08T02:11:52;0.10;;;0.10;;
10096;SDS011;5087;42.662;23.466;2023-01-08T02:14:41;0.10;;;0.10;;
10096;SDS011;5087;42.662;23.466;2023-01-08T02:17:23;0.10;;;0.10;;
10096;SDS011;5087;42.662;23.466;2023-01-08T02:20:02;0.10;;;0.10;;
10096;SDS011;5087;42.662;23.466;2023-01-08T02:25:55;0.33;;;0.33;;
10096;SDS011;5087;42.662;23.466;2023-01-08T02:28:39;0.10;;;0.10;;
10096;SDS011;5087;42.662;23.466;2023-01-08T02:31:10;0.00;;;0.00;;
10096;SDS011;5087;42.662;23.466;2023-01-08T02:33:38;0.87;;;0.87;;
10096;SDS011;5087;42.662;23.466;2023-01-08T02:36:15;0.00;;;0.00;;
10096;SDS011;5087;42.662;23.466;2023-01-08T02:38:56;0.00;;;0.00;;
10096;SDS011;5087;42.662;23.466;2023-01-08T02:44:39;0.00;;;0.00;;
10096;SDS011;5087;42.662;23.466;2023-01-08T02:47:20;4.03;;;1.03;;
10096;SDS011;5087;42.662;23.466;2023-01-08T02:49:56;0.00;;;0.00;;
10096;SDS011;5087;42.662;23.466;2023-01-08T02:52:35;0.57;;;0.57;;
10096;SDS011;5087;42.662;23.466;2023-01-08T02:55:07;0.10;;;0.10;;
10096;SDS011;5087;42.662;23.466;2023-01-08T02:57:38;0.20;;;0.20;;
10096;SDS011;5087;42.662;23.466;2023-01-08T03:00:07;0.10;;;0.10;;
10096;SDS011;5087;42.662;23.466;2023-01-08T03:02:35;0.17;;;0.17;;
10096;SDS011;5087;42.662;23.466;2023-01-08T03:05:12;0.10;;;0.10;;
10096;SDS011;5087;42.662;23.466;2023-01-08T03:07:47;1.33;;;1.33;;
10096;SDS011;5087;42.662;23.466;2023-01-08T03:10:15;0.10;;;0.10;;
10096;SDS011;5087;42.662;23.466;2023-01-08T03:12:47;0.10;;;0.10;;
10096;SDS011;5087;42.662;23.466;2023-01-08T03:15:23;0.10;;;0.10;;
10096;SDS011;5087;42.662;23.466;2023-01-08T03:17:57;1.80;;;1.70;;
10096;SDS011;5087;42.662;23.466;2023-01-08T03:20:27;0.10;;;0.10;;
10096;SDS011;5087;42.662;23.466;2023-01-08T03:22:57;1.17;;;0.37;;
10096;SDS011;5087;42.662;23.466;2023-01-08T03:25:28;0.10;;;0.10;;
10096;SDS011;5087;42.662;23.466;2023-01-08T03:28:01;0.20;;;0.20;;
10096;SDS011;5087;42.662;23.466;2023-01-08T03:30:31;0.20;;;0.20;;
10096;SDS011;5087;42.662;23.466;2023-01-08T03:32:59;0.20;;;0.20;;
10096;SDS011;5087;42.662;23.466;2023-01-08T03:35:28;0.87;;;0.87;;
10096;SDS011;5087;42.662;23.466;2023-01-08T03:37:59;0.20;;;0.20;;
10096;SDS011;5087;42.662;23.466;2023-01-08T03:40:34;0.63;;;0.63;;
10096;SDS011;5087;42.662;23.466;2023-01-08T03:43:12;0.33;;;0.33;;
10096;SDS011;5087;42.662;23.466;2023-01-08T03:45:41;0.20;;;0.20;;
10096;SDS011;5087;42.662;23.466;2023-01-08T03:48:18;0.20;;;0.20;;
10096;SDS011;5087;42.662;23.466;2023-01-08T03:50:46;0.30;;;0.30;;
10096;SDS011;5087;42.662;23.466;2023-01-08T03:53:14;0.20;;;0.20;;
10096;SDS011;5087;42.662;23.466;2023-01-08T03:55:41;0.20;;;0.20;;
10096;SDS011;5087;42.662;23.466;2023-01-08T03:58:08;0.30;;;0.30;;
10096;SDS011;5087;42.662;23.466;2023-01-08T04:00:42;0.20;;;0.20;;
10096;SDS011;5087;42.662;23.466;2023-01-08T04:03:09;0.50;;;0.50;;
10096;SDS011;5087;42.662;23.466;2023-01-08T04:05:36;0.23;;;0.23;;
10096;SDS011;5087;42.662;23.466;2023-01-08T04:08:03;0.20;;;0.20;;
10096;SDS011;5087;42.662;23.466;2023-01-08T04:10:31;0.27;;;0.27;;
10096;SDS011;5087;42.662;23.466;2023-01-08T04:13:12;0.30;;;0.30;;
10096;SDS011;5087;42.662;23.466;2023-01-08T04:15:41;0.43;;;0.43;;
10096;SDS011;5087;42.662;23.466;2023-01-08T04:18:13;0.20;;;0.20;;
10096;SDS011;5087;42.662;23.466;2023-01-08T04:20:43;0.20;;;0.20;;
10096;SDS011;5087;42.662;23.466;2023-01-08T04:23:10;0.20;;;0.20;;
10096;SDS011;5087;42.662;23.466;2023-01-08T04:25:40;0.30;;;0.30;;
10096;SDS011;5087;42.662;23.466;2023-01-08T04:28:07;0.30;;;0.30;;
10096;SDS011;5087;42.662;23.466;2023-01-08T04:30:35;3.80;;;0.87;;
10096;SDS011;5087;42.662;23.466;2023-01-08T04:33:07;0.20;;;0.20;;
10096;SDS011;5087;42.662;23.466;2023-01-08T04:35:38;1.27;;;1.27;;
10096;SDS011;5087;42.662;23.466;2023-01-08T04:38:09;0.30;;;0.30;;
10096;SDS011;5087;42.662;23.466;2023-01-08T04:40:39;0.00;;;0.00;;
10096;SDS011;5087;42.662;23.466;2023-01-08T04:43:09;0.10;;;0.10;;
10096;SDS011;5087;42.662;23.466;2023-01-08T04:45:36;0.93;;;0.93;;
10096;SDS011;5087;42.662;23.466;2023-01-08T04:48:04;0.10;;;0.10;;
10096;SDS011;5087;42.662;23.466;2023-01-08T04:50:32;0.10;;;0.10;;
10096;SDS011;5087;42.662;23.466;2023-01-08T04:53:00;0.63;;;0.60;;
10096;SDS011;5087;42.662;23.466;2023-01-08T04:55:27;0.10;;;0.10;;
10096;SDS011;5087;42.662;23.466;2023-01-08T04:57:54;0.10;;;0.10;;
10096;SDS011;5087;42.662;23.466;2023-01-08T05:00:21;0.10;;;0.10;;
10096;SDS011;5087;42.662;23.466;2023-01-08T05:02:49;0.63;;;0.63;;
10096;SDS011;5087;42.662;23.466;2023-01-08T05:05:16;0.13;;;0.13;;
10096;SDS011;5087;42.662;23.466;2023-01-08T05:07:44;0.10;;;0.10;;
10096;SDS011;5087;42.662;23.466;2023-01-08T05:10:12;0.20;;;0.20;;
10096;SDS011;5087;42.662;23.466;2023-01-08T05:12:39;0.70;;;0.67;;
10096;SDS011;5087;42.662;23.466;2023-01-08T05:15:09;0.20;;;0.20;;
10096;SDS011;5087;42.662;23.466;2023-01-08T05:17:37;0.10;;;0.10;;
10096;SDS011;5087;42.662;23.466;2023-01-08T05:20:05;0.10;;;0.10;;
10096;SDS011;5087;42.662;23.466;2023-01-08T05:22:33;0.20;;;0.20;;
10096;SDS011;5087;42.662;23.466;2023-01-08T05:25:01;0.40;;;0.40;;
10096;SDS011;5087;42.662;23.466;2023-01-08T05:27:29;1.33;;;1.33;;
10096;SDS011;5087;42.662;23.466;2023-01-08T05:29:56;0.87;;;0.57;;
10096;SDS011;5087;42.662;23.466;2023-01-08T05:32:23;0.07;;;0.07;;
10096;SDS011;5087;42.662;23.466;2023-01-08T05:34:50;0.30;;;0.30;;
10096;SDS011;5087;42.662;23.466;2023-01-08T05:37:17;0.43;;;0.43;;
10096;SDS011;5087;42.662;23.466;2023-01-08T05:39:52;0.30;;;0.30;;
10096;SDS011;5087;42.662;23.466;2023-01-08T05:42:21;0.10;;;0.10;;
10096;SDS011;5087;42.662;23.466;2023-01-08T05:44:48;0.20;;;0.20;;
10096;SDS011;5087;42.662;23.466;2023-01-08T05:47:15;0.20;;;0.20;;
10096;SDS011;5087;42.662;23.466;2023-01-08T05:49:42;0.30;;;0.30;;
10096;SDS011;5087;42.662;23.466;2023-01-08T05:52:09;0.20;;;0.20;;
10096;SDS011;5087;42.662;23.466;2023-01-08T05:54:37;0.10;;;0.10;;
10096;SDS011;5087;42.662;23.466;2023-01-08T05:57:04;0.20;;;0.20;;
10096;SDS011;5087;42.662;23.466;2023-01-08T05:59:33;0.20;;;0.20;;
10096;SDS011;5087;42.662;23.466;2023-01-08T06:02:00;3.13;;;2.37;;
10096;SDS011;5087;42.662;23.466;2023-01-08T06:04:27;0.00;;;0.00;;
10096;SDS011;5087;42.662;23.466;2023-01-08T06:06:54;0.13;;;0.13;;
10096;SDS011;5087;42.662;23.466;2023-01-08T06:09:21;0.20;;;0.20;;
10096;SDS011;5087;42.662;23.466;2023-01-08T06:11:48;3.60;;;0.93;;
10096;SDS011;5087;42.662;23.466;2023-01-08T06:14:17;1.13;;;1.13;;
10096;SDS011;5087;42.662;23.466;2023-01-08T06:16:46;0.20;;;0.20;;
10096;SDS011;5087;42.662;23.466;2023-01-08T06:19:13;4.10;;;3.70;;
10096;SDS011;5087;42.662;23.466;2023-01-08T06:21:43;0.67;;;0.67;;
10096;SDS011;5087;42.662;23.466;2023-01-08T06:24:10;2.10;;;2.00;;
10096;SDS011;5087;42.662;23.466;2023-01-08T06:26:38;0.20;;;0.20;;
10096;SDS011;5087;42.662;23.466;2023-01-08T06:29:05;0.30;;;0.30;;
10096;SDS011;5087;42.662;23.466;2023-01-08T06:31:33;0.40;;;0.40;;
10096;SDS011;5087;42.662;23.466;2023-01-08T06:34:02;0.30;;;0.30;;
10096;SDS011;5087;42.662;23.466;2023-01-08T06:36:37;0.20;;;0.20;;
10096;SDS011;5087;42.662;23.466;2023-01-08T06:39:04;0.20;;;0.20;;
10096;SDS011;5087;42.662;23.466;2023-01-08T06:41:34;0.10;;;0.10;;
10096;SDS011;5087;42.662;23.466;2023-01-08T06:44:01;0.77;;;0.77;;
10096;SDS011;5087;42.662;23.466;2023-01-08T06:46:29;0.23;;;0.23;;
10096;SDS011;5087;42.662;23.466;2023-01-08T06:48:56;7.73;;;3.70;;
10096;SDS011;5087;42.662;23.466;2023-01-08T06:51:25;0.10;;;0.10;;
10096;SDS011;5087;42.662;23.466;2023-01-08T06:53:52;0.00;;;0.00;;
10096;SDS011;5087;42.662;23.466;2023-01-08T06:56:19;0.10;;;0.10;;
10096;SDS011;5087;42.662;23.466;2023-01-08T06:58:46;3.00;;;1.50;;
10096;SDS011;5087;42.662;23.466;2023-01-08T07:01:13;0.10;;;0.10;;
10096;SDS011;5087;42.662;23.466;2023-01-08T07:03:41;0.10;;;0.10;;
10096;SDS011;5087;42.662;23.466;2023-01-08T07:06:11;0.70;;;0.70;;
10096;SDS011;5087;42.662;23.466;2023-01-08T07:08:43;2.13;;;2.03;;
10096;SDS011;5087;42.662;23.466;2023-01-08T07:11:11;0.23;;;0.23;;
10096;SDS011;5087;42.662;23.466;2023-01-08T07:13:39;0.20;;;0.20;;
10096;SDS011;5087;42.662;23.466;2023-01-08T07:16:06;0.57;;;0.57;;
10096;SDS011;5087;42.662;23.466;2023-01-08T07:18:43;0.63;;;0.63;;
10096;SDS011;5087;42.662;23.466;2023-01-08T07:21:10;0.10;;;0.10;;
10096;SDS011;5087;42.662;23.466;2023-01-08T07:23:48;2.20;;;1.90;;
10096;SDS011;5087;42.662;23.466;2023-01-08T07:26:15;0.30;;;0.30;;
10096;SDS011;5087;42.662;23.466;2023-01-08T07:28:43;0.20;;;0.20;;
10096;SDS011;5087;42.662;23.466;2023-01-08T07:31:10;0.10;;;0.10;;
10096;SDS011;5087;42.662;23.466;2023-01-08T07:33:38;0.10;;;0.10;;
10096;SDS011;5087;42.662;23.466;2023-01-08T07:36:08;0.10;;;0.10;;
10096;SDS011;5087;42.662;23.466;2023-01-08T07:38:35;0.77;;;0.77;;
10096;SDS011;5087;42.662;23.466;2023-01-08T07:41:04;1.90;;;0.73;;
10096;SDS011;5087;42.662;23.466;2023-01-08T07:43:31;0.50;;;0.50;;
10096;SDS011;5087;42.662;23.466;2023-01-08T07:46:05;0.30;;;0.30;;
10096;SDS011;5087;42.662;23.466;2023-01-08T07:48:33;1.07;;;1.07;;
10096;SDS011;5087;42.662;23.466;2023-01-08T07:51:00;1.97;;;1.87;;
10096;SDS011;5087;42.662;23.466;2023-01-08T07:53:28;0.10;;;0.10;;
10096;SDS011;5087;42.662;23.466;2023-01-08T07:55:59;0.10;;;0.10;;
10096;SDS011;5087;42.662;23.466;2023-01-08T07:58:28;0.10;;;0.10;;
10096;SDS011;5087;42.662;23.466;2023-01-08T08:00:55;0.10;;;0.10;;
10096;SDS011;5087;42.662;23.466;2023-01-08T08:03:23;0.60;;;0.60;;
10096;SDS011;5087;42.662;23.466;2023-01-08T08:05:50;0.60;;;0.60;;
10096;SDS011;5087;42.662;23.466;2023-01-08T08:08:18;0.30;;;0.30;;
10096;SDS011;5087;42.662;23.466;2023-01-08T08:10:45;0.30;;;0.30;;
10096;SDS011;5087;42.662;23.466;2023-01-08T08:13:12;0.77;;;0.77;;
10096;SDS011;5087;42.662;23.466;2023-01-08T08:15:44;0.50;;;0.50;;
10096;SDS011;5087;42.662;23.466;2023-01-08T08:18:11;0.70;;;0.70;;
10096;SDS011;5087;42.662;23.466;2023-01-08T08:20:47;1.10;;;1.10;;
10096;SDS011;5087;42.662;23.466;2023-01-08T08:23:16;1.90;;;1.90;;
10096;SDS011;5087;42.662;23.466;2023-01-08T08:25:44;2.80;;;2.80;;
10096;SDS011;5087;42.662;23.466;2023-01-08T08:28:11;3.50;;;3.30;;
10096;SDS011;5087;42.662;23.466;2023-01-08T08:30:38;2.93;;;2.93;;
10096;SDS011;5087;42.662;23.466;2023-01-08T08:33:08;2.60;;;2.60;;
10096;SDS011;5087;42.662;23.466;2023-01-08T08:35:36;2.70;;;2.70;;
10096;SDS011;5087;42.662;23.466;2023-01-08T08:38:03;2.20;;;2.20;;
10096;SDS011;5087;42.662;23.466;2023-01-08T08:40:31;1.60;;;1.60;;
10096;SDS011;5087;42.662;23.466;2023-01-08T08:42:58;1.50;;;1.50;;
10096;SDS011;5087;42.662;23.466;2023-01-08T08:45:26;1.60;;;1.60;;
10096;SDS011;5087;42.662;23.466;2023-01-08T08:47:54;1.20;;;1.20;;
10096;SDS011;5087;42.662;23.466;2023-01-08T08:50:22;2.40;;;2.30;;
10096;SDS011;5087;42.662;23.466;2023-01-08T08:52:50;1.47;;;1.47;;
10096;SDS011;5087;42.662;23.466;2023-01-08T08:55:17;1.60;;;1.60;;
10096;SDS011;5087;42.662;23.466;2023-01-08T08:57:45;2.40;;;2.40;;
10096;SDS011;5087;42.662;23.466;2023-01-08T09:00:14;2.60;;;2.60;;
10096;SDS011;5087;42.662;23.466;2023-01-08T09:02:42;2.70;;;2.70;;
10096;SDS011;5087;42.662;23.466;2023-01-08T09:05:10;2.83;;;2.83;;
10096;SDS011;5087;42.662;23.466;2023-01-08T09:07:39;2.43;;;2.43;;
10096;SDS011;5087;42.662;23.466;2023-01-08T09:10:18;2.27;;;2.27;;
10096;SDS011;5087;42.662;23.466;2023-01-08T09:12:46;2.70;;;2.70;;
10096;SDS011;5087;42.662;23.466;2023-01-08T09:15:13;2.90;;;2.90;;
10096;SDS011;5087;42.662;23.466;2023-01-08T09:17:40;3.00;;;3.00;;
10096;SDS011;5087;42.662;23.466;2023-01-08T09:20:10;3.77;;;3.67;;
10096;SDS011;5087;42.662;23.466;2023-01-08T09:22:39;2.80;;;2.80;;
10096;SDS011;5087;42.662;23.466;2023-01-08T09:25:06;3.00;;;3.00;;
10096;SDS011;5087;42.662;23.466;2023-01-08T09:27:34;3.97;;;3.87;;
10096;SDS011;5087;42.662;23.466;2023-01-08T09:30:04;2.90;;;2.90;;
10096;SDS011;5087;42.662;23.466;2023-01-08T09:32:32;2.87;;;2.87;;
10096;SDS011;5087;42.662;23.466;2023-01-08T09:35:08;3.70;;;3.70;;
10096;SDS011;5087;42.662;23.466;2023-01-08T09:37:48;3.30;;;3.30;;
10096;SDS011;5087;42.662;23.466;2023-01-08T09:40:16;3.50;;;3.50;;
10096;SDS011;5087;42.662;23.466;2023-01-08T09:43:15;3.30;;;3.30;;
10096;SDS011;5087;42.662;23.466;2023-01-08T09:45:47;3.40;;;3.40;;
10096;SDS011;5087;42.662;23.466;2023-01-08T09:48:18;3.53;;;3.53;;
10096;SDS011;5087;42.662;23.466;2023-01-08T09:50:48;3.43;;;3.43;;
10096;SDS011;5087;42.662;23.466;2023-01-08T09:53:19;3.40;;;3.40;;
10096;SDS011;5087;42.662;23.466;2023-01-08T09:55:48;3.90;;;3.80;;
10096;SDS011;5087;42.662;23.466;2023-01-08T09:58:27;3.20;;;3.20;;
10096;SDS011;5087;42.662;23.466;2023-01-08T10:01:02;3.40;;;3.40;;
10096;SDS011;5087;42.662;23.466;2023-01-08T10:03:35;3.20;;;3.20;;
10096;SDS011;5087;42.662;23.466;2023-01-08T10:06:15;3.30;;;3.30;;
10096;SDS011;5087;42.662;23.466;2023-01-08T10:08:49;4.23;;;4.13;;
10096;SDS011;5087;42.662;23.466;2023-01-08T10:11:17;3.80;;;3.80;;
10096;SDS011;5087;42.662;23.466;2023-01-08T10:13:48;3.40;;;3.40;;
10096;SDS011;5087;42.662;23.466;2023-01-08T10:16:20;3.77;;;3.77;;
10096;SDS011;5087;42.662;23.466;2023-01-08T10:18:54;4.20;;;4.10;;
10096;SDS011;5087;42.662;23.466;2023-01-08T10:21:27;4.30;;;4.20;;
10096;SDS011;5087;42.662;23.466;2023-01-08T10:23:56;3.60;;;3.60;;
10096;SDS011;5087;42.662;23.466;2023-01-08T10:26:24;4.10;;;4.00;;
10096;SDS011;5087;42.662;23.466;2023-01-08T10:29:05;4.00;;;3.90;;
10096;SDS011;5087;42.662;23.466;2023-01-08T10:31:45;4.17;;;4.07;;
10096;SDS011;5087;42.662;23.466;2023-01-08T10:34:25;4.30;;;4.20;;
10096;SDS011;5087;42.662;23.466;2023-01-08T10:36:57;4.80;;;4.70;;
10096;SDS011;5087;42.662;23.466;2023-01-08T10:39:25;4.93;;;4.83;;
10096;SDS011;5087;42.662;23.466;2023-01-08T10:41:54;4.87;;;4.77;;
10096;SDS011;5087;42.662;23.466;2023-01-08T10:44:25;5.20;;;5.10;;
10096;SDS011;5087;42.662;23.466;2023-01-08T10:46:54;5.60;;;5.47;;
10096;SDS011;5087;42.662;23.466;2023-01-08T10:49:26;5.10;;;5.00;;
10096;SDS011;5087;42.662;23.466;2023-01-08T10:51:57;4.80;;;4.70;;
10096;SDS011;5087;42.662;23.466;2023-01-08T10:54:31;4.47;;;4.37;;
10096;SDS011;5087;42.662;23.466;2023-01-08T10:57:00;4.37;;;4.27;;
10096;SDS011;5087;42.662;23.466;2023-01-08T10:59:30;4.20;;;4.10;;
10096;SDS011;5087;42.662;23.466;2023-01-08T11:01:57;4.30;;;4.20;;
10096;SDS011;5087;42.662;23.466;2023-01-08T11:04:26;4.53;;;4.43;;
10096;SDS011;5087;42.662;23.466;2023-01-08T11:06:59;5.00;;;4.90;;
10096;SDS011;5087;42.662;23.466;2023-01-08T11:09:30;4.90;;;4.80;;
10096;SDS011;5087;42.662;23.466;2023-01-08T11:11:59;4.20;;;4.10;;
10096;SDS011;5087;42.662;23.466;2023-01-08T11:14:28;3.53;;;3.53;;
10096;SDS011;5087;42.662;23.466;2023-01-08T11:16:59;4.30;;;4.13;;
10096;SDS011;5087;42.662;23.466;2023-01-08T11:19:35;4.00;;;3.90;;
10096;SDS011;5087;42.662;23.466;2023-01-08T11:22:05;3.80;;;3.80;;
10096;SDS011;5087;42.662;23.466;2023-01-08T11:24:44;3.70;;;3.70;;
10096;SDS011;5087;42.662;23.466;2023-01-08T11:27:13;3.40;;;3.40;;
10096;SDS011;5087;42.662;23.466;2023-01-08T11:29:48;3.40;;;3.40;;
10096;SDS011;5087;42.662;23.466;2023-01-08T11:35:12;3.00;;;3.00;;
10096;SDS011;5087;42.662;23.466;2023-01-08T11:37:45;3.00;;;3.00;;
10096;SDS011;5087;42.662;23.466;2023-01-08T11:40:20;3.10;;;3.10;;
10096;SDS011;5087;42.662;23.466;2023-01-08T11:43:03;3.50;;;3.40;;
10096;SDS011;5087;42.662;23.466;2023-01-08T11:45:48;2.80;;;2.80;;
10096;SDS011;5087;42.662;23.466;2023-01-08T11:48:30;2.80;;;2.80;;
10096;SDS011;5087;42.662;23.466;2023-01-08T11:51:25;3.20;;;3.20;;
10096;SDS011;5087;42.662;23.466;2023-01-08T11:54:04;3.50;;;3.50;;
10096;SDS011;5087;42.662;23.466;2023-01-08T11:56:40;2.90;;;2.90;;
10096;SDS011;5087;42.662;23.466;2023-01-08T11:59:17;3.93;;;3.73;;
10096;SDS011;5087;42.662;23.466;2023-01-08T12:01:55;2.60;;;2.60;;
10096;SDS011;5087;42.662;23.466;2023-01-08T12:07:30;3.17;;;3.17;;
10096;SDS011;5087;42.662;23.466;2023-01-08T12:10:10;2.80;;;2.80;;
10096;SDS011;5087;42.662;23.466;2023-01-08T12:12:45;3.47;;;3.47;;
10096;SDS011;5087;42.662;23.466;2023-01-08T12:15:23;2.63;;;2.63;;
10096;SDS011;5087;42.662;23.466;2023-01-08T12:18:16;2.80;;;2.80;;
10096;SDS011;5087;42.662;23.466;2023-01-08T12:20:52;2.63;;;2.63;;
10096;SDS011;5087;42.662;23.466;2023-01-08T12:23:32;2.30;;;2.30;;
10096;SDS011;5087;42.662;23.466;2023-01-08T12:26:17;2.70;;;2.70;;
10096;SDS011;5087;42.662;23.466;2023-01-08T12:28:59;2.47;;;2.47;;
10096;SDS011;5087;42.662;23.466;2023-01-08T12:31:46;2.30;;;2.30;;
10096;SDS011;5087;42.662;23.466;2023-01-08T12:34:29;2.47;;;2.47;;
10096;SDS011;5087;42.662;23.466;2023-01-08T12:37:06;2.70;;;2.70;;
10096;SDS011;5087;42.662;23.466;2023-01-08T12:39:42;2.40;;;2.40;;
10096;SDS011;5087;42.662;23.466;2023-01-08T12:42:22;2.80;;;2.80;;
10096;SDS011;5087;42.662;23.466;2023-01-08T12:44:56;2.40;;;2.40;;
10096;SDS011;5087;42.662;23.466;2023-01-08T12:47:26;5.90;;;3.90;;
10096;SDS011;5087;42.662;23.466;2023-01-08T12:50:04;2.60;;;2.60;;
10096;SDS011;5087;42.662;23.466;2023-01-08T12:52:46;2.40;;;2.40;;
10096;SDS011;5087;42.662;23.466;2023-01-08T12:55:25;2.40;;;2.40;;
10096;SDS011;5087;42.662;23.466;2023-01-08T12:58:01;2.10;;;2.10;;
10096;SDS011;5087;42.662;23.466;2023-01-08T13:00:44;2.20;;;2.20;;
10096;SDS011;5087;42.662;23.466;2023-01-08T13:03:24;2.20;;;2.20;;
10096;SDS011;5087;42.662;23.466;2023-01-08T13:06:05;2.33;;;2.33;;
10096;SDS011;5087;42.662;23.466;2023-01-08T13:08:39;2.30;;;2.30;;
10096;SDS011;5087;42.662;23.466;2023-01-08T13:11:07;2.30;;;2.30;;
10096;SDS011;5087;42.662;23.466;2023-01-08T13:13:35;2.10;;;2.10;;
10096;SDS011;5087;42.662;23.466;2023-01-08T13:16:07;2.20;;;2.20;;
10096;SDS011;5087;42.662;23.466;2023-01-08T13:18:50;1.90;;;1.90;;
10096;SDS011;5087;42.662;23.466;2023-01-08T13:21:27;2.00;;;2.00;;
10096;SDS011;5087;42.662;23.466;2023-01-08T13:24:18;2.10;;;2.10;;
10096;SDS011;5087;42.662;23.466;2023-01-08T13:26:54;2.40;;;2.40;;
10096;SDS011;5087;42.662;23.466;2023-01-08T13:29:38;2.07;;;2.07;;
10096;SDS011;5087;42.662;23.466;2023-01-08T13:32:28;2.10;;;2.10;;
10096;SDS011;5087;42.662;23.466;2023-01-08T13:35:20;2.17;;;2.17;;
10096;SDS011;5087;42.662;23.466;2023-01-08T13:38:03;2.80;;;2.80;;
10096;SDS011;5087;42.662;23.466;2023-01-08T13:40:47;2.70;;;2.70;;
10096;SDS011;5087;42.662;23.466;2023-01-08T13:43:21;2.30;;;2.30;;
10096;SDS011;5087;42.662;23.466;2023-01-08T13:45:53;2.20;;;2.20;;
10096;SDS011;5087;42.662;23.466;2023-01-08T13:48:36;2.30;;;2.30;;
10096;SDS011;5087;42.662;23.466;2023-01-08T13:51:16;3.03;;;3.00;;
10096;SDS011;5087;42.662;23.466;2023-01-08T13:54:12;3.27;;;3.20;;
10096;SDS011;5087;42.662;23.466;2023-01-08T13:57:09;2.40;;;2.40;;
10096;SDS011;5087;42.662;23.466;2023-01-08T13:59:51;2.70;;;2.70;;
10096;SDS011;5087;42.662;23.466;2023-01-08T14:02:23;2.83;;;2.83;;
10096;SDS011;5087;42.662;23.466;2023-01-08T14:05:17;2.73;;;2.73;;
10096;SDS011;5087;42.662;23.466;2023-01-08T14:08:01;3.23;;;3.23;;
10096;SDS011;5087;42.662;23.466;2023-01-08T14:10:35;2.90;;;2.90;;
10096;SDS011;5087;42.662;23.466;2023-01-08T14:13:07;2.70;;;2.70;;
10096;SDS011;5087;42.662;23.466;2023-01-08T14:15:38;2.50;;;2.50;;
10096;SDS011;5087;42.662;23.466;2023-01-08T14:18:09;2.67;;;2.67;;
10096;SDS011;5087;42.662;23.466;2023-01-08T14:20:41;2.70;;;2.70;;
10096;SDS011;5087;42.662;23.466;2023-01-08T14:23:17;2.40;;;2.40;;
10096;SDS011;5087;42.662;23.466;2023-01-08T14:25:51;2.60;;;2.60;;
10096;SDS011;5087;42.662;23.466;2023-01-08T14:28:20;2.40;;;2.40;;
10096;SDS011;5087;42.662;23.466;2023-01-08T14:30:49;2.60;;;2.60;;
10096;SDS011;5087;42.662;23.466;2023-01-08T14:33:18;2.80;;;2.80;;
10096;SDS011;5087;42.662;23.466;2023-01-08T14:35:51;2.80;;;2.80;;
10096;SDS011;5087;42.662;23.466;2023-01-08T14:38:23;4.03;;;3.73;;
10096;SDS011;5087;42.662;23.466;2023-01-08T14:40:56;3.30;;;3.30;;
10096;SDS011;5087;42.662;23.466;2023-01-08T14:43:25;2.50;;;2.50;;
10096;SDS011;5087;42.662;23.466;2023-01-08T14:45:53;3.03;;;2.93;;
10096;SDS011;5087;42.662;23.466;2023-01-08T14:48:22;2.70;;;2.70;;
10096;SDS011;5087;42.662;23.466;2023-01-08T14:51:01;2.63;;;2.63;;
10096;SDS011;5087;42.662;23.466;2023-01-08T14:53:31;2.70;;;2.70;;
10096;SDS011;5087;42.662;23.466;2023-01-08T14:56:02;2.60;;;2.60;;
10096;SDS011;5087;42.662;23.466;2023-01-08T14:58:33;2.50;;;2.50;;
10096;SDS011;5087;42.662;23.466;2023-01-08T15:01:04;2.57;;;2.57;;
10096;SDS011;5087;42.662;23.466;2023-01-08T15:03:41;2.60;;;2.60;;
10096;SDS011;5087;42.662;23.466;2023-01-08T15:06:11;2.60;;;2.60;;
10096;SDS011;5087;42.662;23.466;2023-01-08T15:08:57;2.70;;;2.70;;
10096;SDS011;5087;42.662;23.466;2023-01-08T15:11:29;2.50;;;2.50;;
10096;SDS011;5087;42.662;23.466;2023-01-08T15:14:10;2.77;;;2.77;;
10096;SDS011;5087;42.662;23.466;2023-01-08T15:16:42;2.60;;;2.60;;
10096;SDS011;5087;42.662;23.466;2023-01-08T15:19:21;2.80;;;2.80;;
10096;SDS011;5087;42.662;23.466;2023-01-08T15:21:51;2.70;;;2.70;;
10096;SDS011;5087;42.662;23.466;2023-01-08T15:24:32;2.70;;;2.70;;
10096;SDS011;5087;42.662;23.466;2023-01-08T15:27:06;4.23;;;4.10;;
10096;SDS011;5087;42.662;23.466;2023-01-08T15:29:46;4.40;;;4.10;;